Time;durP1;ratioP1;P1;durP2;ratioP2;P2;SDS_P1;SDS_P2;PMS_P1;PMS_P2;Temp;Humidity;BMP_temperature;BMP_pressure;BME280_temperature;BME280_humidity;BME280_pressure;Samples;Min_cycle;Max_cycle;Signal;HPM_P1;HPM_P2
2023/10/12 00:02:21;;;;;;;6.40;2.10;;;18.50;1.00;;;;;;6121055;23;20085;-74
2023/10/12 00:05:06;;;;;;;5.55;1.88;;;18.20;1.00;;;;;;6121059;23;20018;-74
2023/10/12 00:07:34;;;;;;;5.10;1.70;;;19.00;1.00;;;;;;6120571;23;20032;-74
2023/10/12 00:12:44;;;;;;;4.97;1.58;;;18.80;1.00;;;;;;6120930;23;20025;-73
2023/10/12 00:15:29;;;;;;;7.25;2.17;;;18.80;1.00;;;;;;6121069;23;20073;-74
2023/10/12 00:17:58;;;;;;;;;;;18.80;1.00;;;;;;6121250;23;20093;-74
2023/10/12 00:22:58;;;;;;;4.88;2.05;;;18.90;1.00;;;;;;6121095;23;20084;-74
2023/10/12 00:25:25;;;;;;;6.38;1.98;;;19.10;1.00;;;;;;6096748;23;20113;-74
2023/10/12 00:27:51;;;;;;;5.82;1.67;;;18.70;1.00;;;;;;6120660;23;20014;-74
2023/10/12 00:30:17;;;;;;;5.20;1.73;;;18.50;1.00;;;;;;6120804;23;20126;-74
2023/10/12 00:32:43;;;;;;;6.22;2.70;;;19.00;1.00;;;;;;6120625;23;20079;-74
2023/10/12 00:35:14;;;;;;;5.15;2.00;;;18.90;1.00;;;;;;6096209;23;20022;-73
2023/10/12 00:37:43;;;;;;;7.30;1.90;;;19.10;1.00;;;;;;6096175;23;20049;-74
2023/10/12 00:40:23;;;;;;;5.03;1.67;;;18.80;1.00;;;;;;6072010;23;20064;-73
2023/10/12 00:42:51;;;;;;;7.68;1.75;;;18.80;1.00;;;;;;6096809;23;20020;-73
2023/10/12 00:45:27;;;;;;;5.75;1.83;;;18.90;1.00;;;;;;6097930;23;20350;-73
2023/10/12 00:47:54;;;;;;;6.03;1.75;;;19.00;1.00;;;;;;6098021;23;20018;-73
2023/10/12 00:50:20;;;;;;;6.35;1.88;;;19.10;1.00;;;;;;6097832;23;20036;-73
2023/10/12 00:52:55;;;;;;;4.68;1.70;;;18.60;1.00;;;;;;6098274;23;20459;-74
2023/10/12 00:55:34;;;;;;;6.47;1.90;;;18.60;1.00;;;;;;6074318;23;20029;-74
2023/10/12 00:58:05;;;;;;;6.53;1.92;;;18.80;1.00;;;;;;6097356;23;20072;-74
2023/10/12 01:00:37;;;;;;;5.93;2.22;;;18.90;1.00;;;;;;6097636;23;20020;-74
2023/10/12 01:03:07;;;;;;;6.45;2.05;;;18.70;1.00;;;;;;6074403;23;20017;-74
2023/10/12 01:05:35;;;;;;;5.07;1.50;;;18.90;1.00;;;;;;6099140;23;20025;-74
2023/10/12 01:08:05;;;;;;;9.60;2.20;;;18.80;1.00;;;;;;6098084;23;20554;-73
2023/10/12 01:10:32;;;;;;;5.65;1.73;;;18.80;1.00;;;;;;6073943;23;20475;-74
2023/10/12 01:13:00;;;;;;;6.90;1.65;;;19.00;1.00;;;;;;6074461;23;20020;-74
2023/10/12 01:15:28;;;;;;;4.90;1.65;;;19.00;1.00;;;;;;6098822;23;20006;-74
2023/10/12 01:17:53;;;;;;;5.10;1.60;;;18.60;1.00;;;;;;6098316;23;20018;-74
2023/10/12 01:20:26;;;;;;;5.70;1.70;;;18.80;1.00;;;;;;6098004;23;20113;-74
2023/10/12 01:22:57;;;;;;;6.22;1.73;;;18.60;1.00;;;;;;6074730;23;20433;-73
2023/10/12 01:25:29;;;;;;;4.63;1.60;;;18.80;1.00;;;;;;6098805;23;20014;-73
2023/10/12 01:27:55;;;;;;;6.57;1.85;;;18.00;1.00;;;;;;6097299;23;20018;-74
2023/10/12 01:30:22;;;;;;;5.20;1.80;;;18.10;1.00;;;;;;6073452;23;20014;-73
2023/10/12 01:32:57;;;;;;;5.70;1.60;;;18.70;1.00;;;;;;6074190;23;20356;-73
2023/10/12 01:35:32;;;;;;;4.97;1.60;;;18.60;1.00;;;;;;6097926;23;20308;-73
2023/10/12 01:38:00;;;;;;;7.35;1.70;;;19.50;1.00;;;;;;6097754;23;20021;-73
2023/10/12 01:40:52;;;;;;;5.38;1.60;;;19.00;1.00;;;;;;6095444;23;20309;-74
2023/10/12 01:43:18;;;;;;;7.63;1.85;;;18.70;1.00;;;;;;6096206;23;20014;-74
2023/10/12 01:45:45;;;;;;;4.50;1.38;;;20.50;1.00;;;;;;6094395;23;20412;-73
2023/10/12 01:48:22;;;;;;;6.22;1.70;;;19.00;1.00;;;;;;6095805;23;20065;-73
2023/10/12 01:50:49;;;;;;;4.30;1.48;;;18.50;1.00;;;;;;6097304;23;20464;-73
2023/10/12 01:55:51;;;;;;;4.57;1.58;;;18.20;1.00;;;;;;6097773;23;20014;-73
2023/10/12 01:58:23;;;;;;;4.03;1.30;;;18.70;1.00;;;;;;6072316;23;20105;-74
2023/10/12 02:00:52;;;;;;;6.88;2.05;;;18.70;1.00;;;;;;6097842;23;20017;-74
2023/10/12 02:03:26;;;;;;;6.45;1.88;;;18.10;1.00;;;;;;6098100;23;20125;-73
2023/10/12 02:06:03;;;;;;;5.43;1.58;;;19.30;1.00;;;;;;6074166;23;20018;-73
2023/10/12 02:08:59;;;;;;;5.35;1.90;;;18.90;1.00;;;;;;6097745;23;20554;-74
2023/10/12 02:13:51;;;;;;;6.05;1.80;;;18.60;1.00;;;;;;6095608;23;20026;-73
2023/10/12 02:16:30;;;;;;;6.82;2.17;;;19.30;1.00;;;;;;6097606;23;20093;-74
2023/10/12 02:18:57;;;;;;;5.43;1.73;;;18.10;1.00;;;;;;6097792;23;20464;-74
2023/10/12 02:21:25;;;;;;;8.20;2.33;;;18.70;1.00;;;;;;6097469;23;20388;-74
2023/10/12 02:26:36;;;;;;;5.13;1.40;;;18.50;1.00;;;;;;6097456;23;20018;-73
2023/10/12 02:31:38;;;;;;;4.40;1.63;;;18.90;1.00;;;;;;6096962;23;20160;-73
2023/10/12 02:34:14;;;;;;;5.38;1.73;;;18.70;1.00;;;;;;6110208;23;20456;-73
2023/10/12 02:36:40;;;;;;;4.90;1.63;;;18.40;1.00;;;;;;6121939;23;20014;-74
2023/10/12 02:39:15;;;;;;;5.47;1.55;;;18.00;1.00;;;;;;6097118;23;20044;-74
2023/10/12 02:41:49;;;;;;;5.55;1.50;;;18.70;1.00;;;;;;6121079;23;20025;-74
2023/10/12 02:44:15;;;;;;;;;;;18.50;1.00;;;;;;6122246;23;20293;-73
2023/10/12 02:46:59;;;;;;;5.38;1.70;;;18.10;1.00;;;;;;6121484;23;19941;-74
2023/10/12 02:49:25;;;;;;;4.72;1.48;;;18.50;1.00;;;;;;6120934;23;20553;-74
2023/10/12 02:51:51;;;;;;;6.68;1.55;;;18.80;1.00;;;;;;6121479;23;20037;-74
2023/10/12 02:54:16;;;;;;;5.95;1.80;;;19.30;1.00;;;;;;6097140;23;20093;-74
2023/10/12 02:56:43;;;;;;;5.35;1.50;;;18.70;1.00;;;;;;6121364;23;20524;-74
2023/10/12 02:59:10;;;;;;;6.72;1.48;;;18.60;1.00;;;;;;6121368;23;20395;-73
2023/10/12 03:01:38;;;;;;;3.85;1.38;;;18.70;1.00;;;;;;6120603;23;20010;-73
2023/10/12 03:04:11;;;;;;;5.68;1.58;;;18.80;1.00;;;;;;6096781;23;20013;-74
2023/10/12 03:06:55;;;;;;;5.00;1.23;;;18.00;1.00;;;;;;6097000;23;20014;-73
2023/10/12 03:09:26;;;;;;;5.30;1.73;;;19.00;1.00;;;;;;6096526;23;20018;-73
2023/10/12 03:11:56;;;;;;;5.00;1.73;;;18.70;1.00;;;;;;6120233;23;20017;-73
2023/10/12 03:14:26;;;;;;;5.30;1.50;;;18.70;1.00;;;;;;6120953;23;20064;-73
2023/10/12 03:17:02;;;;;;;4.82;1.65;;;19.10;1.00;;;;;;6096877;23;20013;-73
2023/10/12 03:19:29;;;;;;;5.35;1.23;;;19.00;1.00;;;;;;6121050;23;20010;-73
2023/10/12 03:22:03;;;;;;;6.05;1.83;;;18.60;1.00;;;;;;6121595;23;20010;-73
2023/10/12 03:27:24;;;;;;;5.88;2.20;;;17.90;1.00;;;;;;6108687;23;20025;-74
2023/10/12 03:30:07;;;;;;;6.07;1.83;;;18.00;1.00;;;;;;6096645;23;20344;-73
2023/10/12 03:32:32;;;;;;;4.80;1.42;;;17.90;1.00;;;;;;6097457;23;20010;-73
2023/10/12 03:34:58;;;;;;;5.85;1.90;;;18.80;1.00;;;;;;6096876;23;20068;-73
2023/10/12 03:41:46;;;;;;;4.93;1.50;;;18.80;1.00;;;;;;6121020;23;20017;-73
2023/10/12 03:42:55;;;;;;;5.85;1.58;;;18.80;1.00;;;;;;6110751;23;20017;-73
2023/10/12 03:45:27;;;;;;;5.20;1.42;;;18.80;1.00;;;;;;6121360;23;20335;-73
2023/10/12 03:53:45;;;;;;;5.72;1.50;;;18.80;1.00;;;;;;6097888;23;20542;-73
2023/10/12 03:56:14;;;;;;;5.47;1.60;;;18.90;1.00;;;;;;6120942;23;20452;-73
2023/10/12 03:58:47;;;;;;;4.47;1.50;;;18.90;1.00;;;;;;6121496;23;20564;-74
2023/10/12 04:01:23;;;;;;;5.38;1.60;;;19.00;1.00;;;;;;6096318;23;20014;-73
2023/10/12 04:03:58;;;;;;;4.88;1.58;;;18.60;1.00;;;;;;6096942;23;20509;-73
2023/10/12 04:06:28;;;;;;;4.43;1.48;;;19.10;1.00;;;;;;6121049;23;20360;-73
2023/10/12 04:08:58;;;;;;;5.07;1.40;;;18.70;1.00;;;;;;6120913;23;20014;-73
2023/10/12 04:11:47;;;;;;;4.90;1.40;;;18.60;1.00;;;;;;6120472;23;20014;-73
2023/10/12 04:16:45;;;;;;;4.47;1.40;;;18.70;1.00;;;;;;6120441;23;20565;-73
2023/10/12 04:19:16;;;;;;;5.13;1.42;;;18.50;1.00;;;;;;6119099;23;20014;-73
2023/10/12 04:21:59;;;;;;;5.28;1.33;;;18.90;1.00;;;;;;6122080;23;20073;-73
2023/10/12 04:24:27;;;;;;;4.32;1.35;;;19.20;1.00;;;;;;6096486;23;20068;-73
2023/10/12 04:29:59;;;;;;;4.93;1.80;;;18.40;1.00;;;;;;6065158;23;20022;-73
2023/10/12 04:35:19;;;;;;;5.22;1.40;;;18.50;1.00;;;;;;6097780;23;20021;-73
2023/10/12 04:37:45;;;;;;;4.78;1.30;;;18.00;1.00;;;;;;6122901;23;20398;-73
2023/10/12 04:40:33;;;;;;;6.90;1.95;;;18.60;1.00;;;;;;6097662;23;20018;-73
2023/10/12 04:43:00;;;;;;;9.18;2.95;;;18.90;1.00;;;;;;6122873;23;20355;-73
2023/10/12 04:45:29;;;;;;;12.93;3.17;;;18.80;1.00;;;;;;6122186;23;20014;-73
2023/10/12 04:48:06;;;;;;;12.57;2.97;;;18.10;1.00;;;;;;6122638;23;20628;-74
2023/10/12 04:50:44;;;;;;;12.25;3.97;;;18.50;1.00;;;;;;6097106;23;20453;-73
2023/10/12 04:53:12;;;;;;;12.98;2.60;;;18.60;1.00;;;;;;6098419;23;20014;-73
2023/10/12 04:55:47;;;;;;;13.80;3.45;;;18.40;1.00;;;;;;6098183;23;20456;-74
2023/10/12 05:00:59;;;;;;;11.35;3.03;;;17.90;1.00;;;;;;6121908;23;19917;-73
2023/10/12 05:03:33;;;;;;;10.57;3.25;;;17.80;1.00;;;;;;6097093;23;20073;-73
2023/10/12 05:06:08;;;;;;;13.45;3.42;;;18.30;1.00;;;;;;6122800;23;20391;-73
2023/10/12 05:08:35;;;;;;;14.05;3.38;;;18.20;1.00;;;;;;6122032;23;20010;-73
2023/10/12 05:11:06;;;;;;;9.38;3.10;;;18.30;1.00;;;;;;6097297;23;20442;-73
2023/10/12 05:13:31;;;;;;;11.88;3.53;;;19.10;1.00;;;;;;6121377;23;20344;-74
2023/10/12 05:16:05;;;;;;;12.15;3.67;;;17.80;1.00;;;;;;6098490;23;20021;-74
2023/10/12 05:18:34;;;;;;;18.40;5.90;;;18.90;1.00;;;;;;6122346;23;20060;-73
2023/10/12 05:21:00;;;;;;;21.67;6.55;;;18.80;1.00;;;;;;6122284;23;20018;-75
2023/10/12 05:23:26;;;;;;;24.98;7.55;;;18.40;1.00;;;;;;6122647;23;20093;-73
2023/10/12 05:28:27;;;;;;;17.65;5.63;;;18.80;1.00;;;;;;6123051;23;20018;-73
2023/10/12 05:30:59;;;;;;;18.05;6.43;;;18.60;1.00;;;;;;6122097;23;20053;-73
2023/10/12 05:36:12;;;;;;;14.68;5.47;;;18.80;1.00;;;;;;6122055;23;20017;-74
2023/10/12 05:38:48;;;;;;;12.18;4.25;;;18.60;1.00;;;;;;6098228;23;20022;-73
2023/10/12 05:43:59;;;;;;;;;;;18.80;1.00;;;;;;6122603;23;20030;-73
2023/10/12 05:46:32;;;;;;;13.00;3.30;;;18.20;1.00;;;;;;6121194;23;19936;-73
2023/10/12 05:48:58;;;;;;;11.80;4.38;;;18.80;1.00;;;;;;6121675;23;20022;-73
2023/10/12 05:51:24;;;;;;;10.23;3.85;;;18.90;1.00;;;;;;6121283;23;20014;-73
2023/10/12 05:54:01;;;;;;;10.98;3.50;;;18.70;1.00;;;;;;6121257;23;20014;-73
2023/10/12 05:56:28;;;;;;;11.88;3.38;;;17.60;1.00;;;;;;6116714;23;20014;-73
2023/10/12 05:58:53;;;;;;;10.57;3.90;;;18.30;1.00;;;;;;6118226;23;20210;-73
2023/10/12 06:01:36;;;;;;;12.32;3.20;;;18.30;1.00;;;;;;6096988;23;20076;-73
2023/10/12 06:04:06;;;;;;;10.80;2.80;;;17.70;1.00;;;;;;6122599;23;20017;-73
2023/10/12 06:06:38;;;;;;;10.57;3.70;;;18.80;1.00;;;;;;6121595;23;20010;-73
2023/10/12 06:09:11;;;;;;;8.68;2.80;;;18.70;1.00;;;;;;6097353;23;20010;-74
2023/10/12 06:11:40;;;;;;;9.43;4.25;;;18.30;1.00;;;;;;6121551;23;20017;-73
2023/10/12 06:14:06;;;;;;;12.88;3.20;;;18.20;1.00;;;;;;6122428;23;20017;-73
2023/10/12 06:16:39;;;;;;;7.95;2.83;;;18.10;1.00;;;;;;6122337;23;20033;-73
2023/10/12 06:19:05;;;;;;;10.65;2.80;;;18.50;1.00;;;;;;6098491;23;20014;-73
2023/10/12 06:21:40;;;;;;;8.73;2.65;;;18.80;1.00;;;;;;6097305;23;20025;-73
2023/10/12 06:24:11;;;;;;;11.10;2.95;;;18.00;1.00;;;;;;6122498;23;20097;-73
2023/10/12 06:26:38;;;;;;;7.75;2.60;;;18.40;1.00;;;;;;6121989;23;20025;-73
2023/10/12 06:29:07;;;;;;;9.55;2.90;;;18.70;1.00;;;;;;6122340;23;20069;-74
2023/10/12 06:31:33;;;;;;;6.97;2.10;;;18.40;1.00;;;;;;6121613;23;20085;-73
2023/10/12 06:34:10;;;;;;;6.90;2.35;;;20.80;1.00;;;;;;6098157;23;20424;-73
2023/10/12 06:36:39;;;;;;;8.32;2.17;;;18.50;1.00;;;;;;6097724;23;20014;-74
2023/10/12 06:46:48;;;;;;;7.72;2.22;;;18.00;1.00;;;;;;6122469;23;20337;-73
2023/10/12 06:49:28;;;;;;;7.07;2.17;;;19.20;1.00;;;;;;6098492;23;20014;-74
2023/10/12 06:52:03;;;;;;;7.07;2.08;;;18.60;1.00;;;;;;6099013;23;20014;-74
2023/10/12 06:54:39;;;;;;;6.65;1.85;;;17.60;1.00;;;;;;6098258;23;20014;-74
2023/10/12 06:59:52;;;;;;;6.10;1.80;;;17.80;1.00;;;;;;6121784;23;20029;-75
2023/10/12 07:02:22;;;;;;;8.00;1.98;;;18.10;1.00;;;;;;6122306;23;20227;-74
2023/10/12 07:04:53;;;;;;;5.65;1.90;;;17.70;1.00;;;;;;6121891;23;20129;-74
2023/10/12 07:07:29;;;;;;;6.55;1.92;;;18.60;99.90;;;;;;6122200;23;20028;-74
2023/10/12 07:10:17;;;;;;;7.45;1.98;;;17.90;1.00;;;;;;6097034;23;20056;-74
2023/10/12 07:12:48;;;;;;;7.00;2.55;;;18.60;99.90;;;;;;6097203;23;20013;-74
2023/10/12 07:15:19;;;;;;;6.53;2.08;;;18.20;99.90;;;;;;6097829;23;20379;-74
2023/10/12 07:17:51;;;;;;;5.00;1.67;;;18.60;99.90;;;;;;6121953;23;20021;-74
2023/10/12 07:22:57;;;;;;;5.90;1.50;;;18.60;99.90;;;;;;6121928;23;20075;-74
2023/10/12 07:25:27;;;;;;;5.40;1.52;;;18.50;99.90;;;;;;6121900;23;20014;-74
2023/10/12 07:28:01;;;;;;;4.80;1.63;;;18.50;99.90;;;;;;6122033;23;20014;-74
2023/10/12 07:30:30;;;;;;;6.25;1.77;;;18.50;99.90;;;;;;6121413;23;20021;-74
2023/10/12 07:33:07;;;;;;;6.00;1.75;;;17.80;99.90;;;;;;6121877;23;20022;-74
2023/10/12 07:35:38;;;;;;;5.57;1.90;;;18.20;99.90;;;;;;6073232;23;20553;-74
2023/10/12 07:38:25;;;;;;;6.68;1.80;;;18.80;99.90;;;;;;6073617;23;20025;-74
2023/10/12 07:40:57;;;;;;;6.90;1.85;;;18.60;99.90;;;;;;6072797;23;20479;-74
2023/10/12 07:43:24;;;;;;;5.82;1.60;;;18.50;99.90;;;;;;6098096;23;20097;-74
2023/10/12 07:45:50;;;;;;;5.20;1.70;;;18.30;84.80;;;;;;6098301;23;20022;-74
2023/10/12 07:49:21;;;;;;;6.18;1.67;;;18.10;42.80;;;;;;6073558;23;20486;-74
2023/10/12 07:51:16;;;;;;;7.75;2.10;;;18.30;28.20;;;;;;6089062;23;20018;-74
2023/10/12 07:53:57;;;;;;;8.45;1.65;;;18.00;1.00;;;;;;6073750;23;20474;-74
2023/10/12 07:56:24;;;;;;;6.35;1.80;;;18.90;1.00;;;;;;6073464;23;20014;-74
2023/10/12 07:58:57;;;;;;;6.32;1.88;;;18.60;1.00;;;;;;6073031;23;20021;-74
2023/10/12 08:03:58;;;;;;;5.15;1.83;;;18.60;1.00;;;;;;6097137;23;20022;-74
2023/10/12 08:06:46;;;;;;;7.70;2.00;;;18.00;1.00;;;;;;6073181;23;20320;-74
2023/10/12 08:11:53;;;;;;;6.55;1.80;;;18.80;1.00;;;;;;6096836;23;20017;-74
2023/10/12 08:14:39;;;;;;;6.60;2.28;;;18.40;1.00;;;;;;6073597;23;20089;-74
2023/10/12 08:19:56;;;;;;;5.70;1.60;;;18.50;1.00;;;;;;6096112;23;20073;-74
2023/10/12 08:22:29;;;;;;;8.32;2.22;;;17.90;1.00;;;;;;6097207;23;20093;-74
2023/10/12 08:24:58;;;;;;;6.57;1.48;;;18.50;1.00;;;;;;6073004;23;20009;-75
2023/10/12 08:27:26;;;;;;;5.15;1.60;;;18.70;1.00;;;;;;6097460;23;20014;-74
2023/10/12 08:37:26;;;;;;;;;;;18.50;99.90;;;;;;6121938;23;20100;-74
2023/10/12 08:40:07;;;;;;;5.70;1.58;;;18.30;1.00;;;;;;6120611;23;19948;-74
2023/10/12 08:45:08;;;;;;;6.05;1.70;;;18.20;1.00;;;;;;6121760;23;20026;-74
2023/10/12 08:50:08;;;;;;;6.47;2.08;;;18.70;99.90;;;;;;6120661;23;20018;-74
2023/10/12 08:52:38;;;;;;;4.85;1.63;;;18.00;99.90;;;;;;6121267;23;20025;-74
2023/10/12 08:55:11;;;;;;;5.15;1.63;;;19.10;99.90;;;;;;6121774;23;20014;-74
2023/10/12 08:58:12;;;;;;;7.18;1.80;;;17.70;99.90;;;;;;6096651;23;20014;-75
2023/10/12 09:00:40;;;;;;;5.63;1.67;;;18.10;99.90;;;;;;6120392;23;20494;-74
2023/10/12 09:03:07;;;;;;;7.00;1.70;;;18.30;99.90;;;;;;6097138;23;20025;-74
2023/10/12 09:05:34;;;;;;;5.82;1.60;;;18.20;99.90;;;;;;6122186;23;20014;-74
2023/10/12 09:08:24;;;;;;;4.90;1.50;;;18.20;99.90;;;;;;6122675;23;20168;-74
2023/10/12 09:13:36;;;;;;;4.93;1.55;;;18.40;99.90;;;;;;6123201;23;20483;-74
2023/10/12 09:16:09;;;;;;;6.13;1.60;;;17.40;99.90;;;;;;6123204;23;20321;-74
2023/10/12 09:18:44;;;;;;;5.00;1.60;;;18.30;99.90;;;;;;6098512;23;20029;-74
2023/10/12 09:23:50;;;;;;;5.70;1.60;;;18.10;99.90;;;;;;6122741;23;20411;-74
2023/10/12 09:26:30;;;;;;;5.35;1.70;;;18.50;99.90;;;;;;6123223;23;20017;-74
2023/10/12 09:29:08;;;;;;;4.68;1.40;;;17.60;99.90;;;;;;6122733;23;20014;-74
2023/10/12 09:31:48;;;;;;;4.80;1.63;;;17.60;99.90;;;;;;6097855;23;20014;-74
2023/10/12 09:36:56;;;;;;;6.00;2.15;;;17.40;99.90;;;;;;6122825;23;20014;-74
2023/10/12 09:39:34;;;;;;;5.35;1.60;;;18.80;99.90;;;;;;6122356;23;20486;-74
2023/10/12 09:42:09;;;;;;;4.40;1.25;;;18.30;99.90;;;;;;6122640;23;20036;-74
2023/10/12 09:44:39;;;;;;;4.57;1.38;;;18.10;99.90;;;;;;6097939;23;20010;-74
2023/10/12 09:47:11;;;;;;;4.93;1.90;;;18.50;99.90;;;;;;6122683;23;20021;-74
2023/10/12 09:49:44;;;;;;;5.22;1.77;;;18.40;99.90;;;;;;6121763;23;20010;-74
2023/10/12 09:52:13;;;;;;;5.35;1.40;;;18.50;99.90;;;;;;6122799;23;20041;-74
2023/10/12 09:54:45;;;;;;;6.30;1.90;;;17.80;99.90;;;;;;6098544;23;20021;-74
2023/10/12 09:57:27;;;;;;;7.82;2.45;;;18.50;99.90;;;;;;6123142;23;20021;-75
2023/10/12 09:59:59;;;;;;;5.85;1.67;;;18.20;99.90;;;;;;6121728;23;20018;-74
2023/10/12 10:02:30;;;;;;;5.57;1.60;;;18.20;99.90;;;;;;6098363;23;20010;-74
2023/10/12 10:05:11;;;;;;;8.57;2.08;;;18.10;99.90;;;;;;6098141;23;20018;-74
2023/10/12 10:07:52;;;;;;;5.43;1.98;;;18.50;99.90;;;;;;6097915;23;20045;-74
2023/10/12 10:10:34;;;;;;;4.25;1.50;;;18.10;99.90;;;;;;6097570;23;20321;-74
2023/10/12 10:13:29;;;;;;;5.15;1.50;;;18.30;99.90;;;;;;6122636;23;20016;-74
2023/10/12 10:15:55;;;;;;;6.40;1.45;;;17.80;99.90;;;;;;6097442;23;20098;-74
2023/10/12 10:18:28;;;;;;;6.80;1.55;;;18.50;99.90;;;;;;6122156;23;20061;-75
2023/10/12 10:20:58;;;;;;;5.63;1.50;;;18.30;99.90;;;;;;6119243;23;20018;-74
2023/10/12 10:23:24;;;;;;;5.85;1.63;;;18.70;99.90;;;;;;6122410;23;20439;-74
2023/10/12 10:26:17;;;;;;;4.97;1.40;;;18.40;99.90;;;;;;6096918;23;20022;-74
2023/10/12 10:29:04;;;;;;;5.95;1.75;;;18.30;99.90;;;;;;6122668;23;20025;-75
2023/10/12 10:31:45;;;;;;;5.05;1.45;;;18.50;99.90;;;;;;6121692;23;20523;-75
2023/10/12 10:34:16;;;;;;;5.65;1.45;;;18.50;99.90;;;;;;6122127;23;20033;-74
2023/10/12 10:36:50;;;;;;;6.68;1.60;;;17.40;99.90;;;;;;6121929;23;20064;-74
2023/10/12 10:44:15;;;;;;;5.18;1.30;;;18.10;99.90;;;;;;6122207;23;20030;-74
2023/10/12 10:46:45;;;;;;;4.65;1.30;;;18.90;99.90;;;;;;6097674;23;20014;-74
2023/10/12 10:49:15;;;;;;;4.72;1.20;;;18.30;99.90;;;;;;6121615;23;20014;-74
2023/10/12 10:52:01;;;;;;;5.72;1.58;;;18.40;99.90;;;;;;6121567;23;20014;-74
2023/10/12 10:54:27;;;;;;;5.68;1.60;;;18.40;99.90;;;;;;6097767;23;20021;-75
2023/10/12 10:56:54;;;;;;;5.80;1.80;;;18.60;99.90;;;;;;6097164;23;20348;-74
2023/10/12 10:59:20;;;;;;;4.82;1.48;;;18.20;99.90;;;;;;6122222;23;20347;-74
2023/10/12 11:01:49;;;;;;;4.80;1.45;;;18.60;99.90;;;;;;6097470;23;20245;-74
2023/10/12 11:06:58;;;;;;;5.53;1.70;;;18.40;99.90;;;;;;6121535;23;20020;-74
2023/10/12 11:09:31;;;;;;;4.70;1.58;;;18.30;99.90;;;;;;6121425;23;20014;-75
2023/10/12 11:12:00;;;;;;;5.47;2.08;;;18.20;99.90;;;;;;6121467;23;20017;-74
2023/10/12 11:14:32;;;;;;;5.07;1.45;;;18.50;99.90;;;;;;6122069;23;20018;-74
2023/10/12 11:17:00;;;;;;;4.68;1.35;;;18.80;99.90;;;;;;6097071;23;20015;-74
2023/10/12 11:19:27;;;;;;;4.88;1.50;;;17.80;99.90;;;;;;6121714;23;20456;-74
2023/10/12 11:21:52;;;;;;;4.32;1.30;;;18.40;99.90;;;;;;6121670;23;20006;-74
2023/10/12 11:24:20;;;;;;;4.93;1.60;;;17.80;99.90;;;;;;6097725;23;20118;-74
2023/10/12 11:26:51;;;;;;;5.50;1.52;;;17.90;99.90;;;;;;6121493;23;20391;-74
2023/10/12 11:29:17;;;;;;;5.22;1.40;;;18.80;99.90;;;;;;6097140;23;20040;-74
2023/10/12 11:31:46;;;;;;;5.00;1.52;;;17.40;99.90;;;;;;6096884;23;20077;-74
2023/10/12 11:34:23;;;;;;;7.38;1.38;;;18.70;99.90;;;;;;6121655;23;20010;-74
2023/10/12 11:36:57;;;;;;;5.15;1.20;;;17.40;99.90;;;;;;6097333;23;20006;-75
2023/10/12 11:39:28;;;;;;;3.95;1.15;;;18.20;99.90;;;;;;6121016;23;20159;-74
2023/10/12 11:42:04;;;;;;;3.33;1.00;;;18.60;99.90;;;;;;6096926;23;20018;-74
2023/10/12 11:44:34;;;;;;;6.43;1.55;;;18.60;99.90;;;;;;6097345;23;20097;-74
2023/10/12 11:47:07;;;;;;;4.82;1.20;;;17.80;99.90;;;;;;6097479;23;20018;-74
2023/10/12 11:49:57;;;;;;;6.60;1.48;;;18.40;99.90;;;;;;6096637;23;20089;-74
2023/10/12 11:52:30;;;;;;;4.90;1.42;;;18.00;99.90;;;;;;6097605;23;20021;-75
2023/10/12 11:55:06;;;;;;;5.18;1.20;;;18.10;99.90;;;;;;6121476;23;20133;-74
2023/10/12 11:57:41;;;;;;;4.93;1.35;;;18.30;99.90;;;;;;6121854;23;20013;-74
2023/10/12 12:00:55;;;;;;;4.72;1.30;;;18.20;99.90;;;;;;6120827;23;20042;-74
2023/10/12 12:02:59;;;;;;;5.18;1.30;;;18.40;99.90;;;;;;6110926;23;20368;-74
2023/10/12 12:05:33;;;;;;;5.88;1.20;;;18.60;99.90;;;;;;6097164;23;20021;-74
2023/10/12 12:08:14;;;;;;;5.30;1.25;;;17.70;99.90;;;;;;6096760;23;20018;-74
2023/10/12 12:13:20;;;;;;;4.75;1.45;;;18.60;99.90;;;;;;6121470;23;20076;-74
2023/10/12 12:15:47;;;;;;;5.38;1.98;;;18.10;99.90;;;;;;6097261;23;20013;-74
2023/10/12 12:18:23;;;;;;;6.03;1.65;;;18.30;99.90;;;;;;6121070;23;20522;-74
2023/10/12 12:20:56;;;;;;;4.38;1.20;;;18.40;99.90;;;;;;6096350;23;20195;-74
2023/10/12 12:23:33;;;;;;;6.15;1.23;;;18.20;99.90;;;;;;6097293;23;20049;-74
2023/10/12 12:26:09;;;;;;;4.38;1.20;;;18.30;99.90;;;;;;6096637;23;20066;-74
2023/10/12 12:28:43;;;;;;;4.90;1.30;;;18.40;99.90;;;;;;6121526;23;20018;-74
2023/10/12 12:31:15;;;;;;;4.10;1.20;;;18.30;99.90;;;;;;6120722;23;20066;-74
2023/10/12 12:33:43;;;;;;;5.03;1.45;;;18.30;99.90;;;;;;6096816;23;20073;-74
2023/10/12 12:36:21;;;;;;;5.40;1.10;;;18.30;99.90;;;;;;6121047;23;20013;-74
2023/10/12 12:39:33;;;;;;;5.57;1.35;;;18.20;99.90;;;;;;6121374;23;20017;-74
2023/10/12 12:41:39;;;;;;;5.25;1.40;;;17.60;99.90;;;;;;6114157;23;20025;-74
2023/10/12 12:44:08;;;;;;;4.45;1.27;;;17.50;99.90;;;;;;6098770;23;20380;-74
2023/10/12 12:46:34;;;;;;;6.55;1.30;;;17.80;99.90;;;;;;6098980;23;20018;-74
2023/10/12 12:49:00;;;;;;;4.93;1.30;;;18.40;99.90;;;;;;6098464;23;20030;-74
2023/10/12 12:51:26;;;;;;;4.22;1.20;;;18.60;99.90;;;;;;6098277;23;20014;-74
2023/10/12 12:53:53;;;;;;;4.70;1.50;;;18.50;99.90;;;;;;6099159;23;20016;-74
2023/10/12 12:56:24;;;;;;;4.30;1.33;;;18.70;99.90;;;;;;6122655;23;20009;-74
2023/10/12 12:58:51;;;;;;;4.65;1.30;;;17.50;99.90;;;;;;6098760;23;20053;-74
2023/10/12 13:01:24;;;;;;;4.50;1.67;;;18.40;99.90;;;;;;6097925;23;20018;-74
2023/10/12 13:03:57;;;;;;;3.95;1.45;;;17.80;99.90;;;;;;6098797;23;20022;-74
2023/10/12 13:06:23;;;;;;;4.32;1.10;;;17.90;99.90;;;;;;6122791;23;20079;-74
2023/10/12 13:08:49;;;;;;;4.32;1.20;;;18.90;99.90;;;;;;6122919;23;20022;-74
2023/10/12 13:11:21;;;;;;;4.82;1.20;;;18.60;99.90;;;;;;6098133;23;20021;-74
2023/10/12 13:13:47;;;;;;;5.32;1.40;;;18.70;99.90;;;;;;6098874;23;20009;-74
2023/10/12 13:16:14;;;;;;;5.45;1.30;;;19.10;99.90;;;;;;6123482;23;20009;-74
2023/10/12 13:18:45;;;;;;;3.88;1.13;;;18.30;99.90;;;;;;6099437;23;20013;-74
2023/10/12 13:21:14;;;;;;;5.20;1.30;;;18.90;99.90;;;;;;6124065;23;20418;-74
2023/10/12 13:23:41;;;;;;;4.90;1.30;;;18.70;99.90;;;;;;6125510;23;20428;-74
2023/10/12 13:26:07;;;;;;;5.78;1.42;;;18.40;99.90;;;;;;6101046;23;20025;-74
2023/10/12 13:28:34;;;;;;;5.88;1.25;;;18.70;99.90;;;;;;6134304;23;20023;-74
2023/10/12 13:30:59;;;;;;;4.25;1.20;;;18.60;99.90;;;;;;6129655;23;20352;-74
2023/10/12 13:33:27;;;;;;;3.85;1.23;;;18.70;99.90;;;;;;6123822;23;20016;-74
2023/10/12 13:35:56;;;;;;;3.92;1.20;;;18.70;99.90;;;;;;6123362;23;20085;-74
2023/10/12 13:38:21;;;;;;;2.95;1.00;;;18.20;99.90;;;;;;6098477;23;20403;-74
2023/10/12 13:40:48;;;;;;;3.33;1.10;;;18.20;99.90;;;;;;6122449;23;20114;-74
2023/10/12 13:43:15;;;;;;;3.58;1.00;;;18.50;99.90;;;;;;6098323;23;20018;-74
2023/10/12 13:45:47;;;;;;;5.28;1.20;;;18.30;99.90;;;;;;6122683;23;20025;-74
2023/10/12 13:48:29;;;;;;;3.33;1.00;;;17.70;99.90;;;;;;6097714;23;20017;-74
2023/10/12 13:51:01;;;;;;;4.68;1.10;;;17.80;99.90;;;;;;6122394;23;20076;-74
2023/10/12 13:53:36;;;;;;;5.38;1.45;;;17.80;99.90;;;;;;6122869;23;20018;-74
2023/10/12 13:56:09;;;;;;;5.53;1.50;;;18.60;99.90;;;;;;6122960;23;20010;-74
2023/10/12 13:58:37;;;;;;;4.55;1.23;;;17.80;99.90;;;;;;6122585;23;20017;-74
2023/10/12 14:01:03;;;;;;;4.57;1.10;;;18.40;99.90;;;;;;6097912;23;20121;-74
2023/10/12 14:03:34;;;;;;;5.57;1.48;;;18.00;99.90;;;;;;6122490;23;20069;-74
2023/10/12 14:06:01;;;;;;;5.00;1.10;;;17.50;99.90;;;;;;6122581;23;20022;-74
2023/10/12 14:08:32;;;;;;;5.05;1.63;;;18.30;99.90;;;;;;6122003;23;20021;-74
2023/10/12 14:11:03;;;;;;;6.13;1.55;;;18.50;99.90;;;;;;6097918;23;20014;-74
2023/10/12 14:13:29;;;;;;;5.55;1.40;;;18.60;99.90;;;;;;6122195;23;20037;-74
2023/10/12 14:15:55;;;;;;;5.75;1.60;;;18.30;99.90;;;;;;6098194;23;20428;-74
2023/10/12 14:18:20;;;;;;;4.65;1.20;;;19.10;99.90;;;;;;6122270;23;20045;-74
2023/10/12 14:20:47;;;;;;;3.72;1.10;;;18.80;99.90;;;;;;6121767;23;20009;-74
2023/10/12 14:23:15;;;;;;;3.50;0.98;;;18.90;99.90;;;;;;6122149;23;20014;-74
2023/10/12 14:25:43;;;;;;;3.72;1.10;;;17.80;99.90;;;;;;6122121;23;20351;-74
2023/10/12 14:28:17;;;;;;;5.22;1.50;;;17.70;99.90;;;;;;6121960;23;20014;-74
2023/10/12 14:30:52;;;;;;;3.67;1.03;;;18.40;99.90;;;;;;6121782;23;20018;-74
2023/10/12 14:33:21;;;;;;;5.30;1.30;;;18.60;99.90;;;;;;6097557;23;20006;-74
2023/10/12 14:35:51;;;;;;;2.85;1.13;;;17.60;99.90;;;;;;6121699;23;20016;-74
2023/10/12 14:38:18;;;;;;;4.13;1.20;;;18.60;99.90;;;;;;6097376;23;20056;-74
2023/10/12 14:40:45;;;;;;;4.90;1.27;;;18.30;99.90;;;;;;6095558;23;20018;-74
2023/10/12 14:43:13;;;;;;;4.72;1.55;;;18.60;99.90;;;;;;6121821;23;20098;-74
2023/10/12 14:46:02;;;;;;;4.82;1.30;;;18.60;99.90;;;;;;6097160;23;20021;-74
2023/10/12 14:48:28;;;;;;;4.20;1.10;;;18.90;99.90;;;;;;6121587;23;20021;-74
2023/10/12 14:51:17;;;;;;;4.10;1.27;;;18.40;99.90;;;;;;6097069;23;20018;-74
2023/10/12 14:53:47;;;;;;;3.50;1.00;;;18.50;99.90;;;;;;6097206;23;20064;-74
2023/10/12 14:56:14;;;;;;;5.97;1.10;;;18.60;99.90;;;;;;6097093;23;20010;-74